sensor_id;sensor_type;location;lat;lon;timestamp;P1;durP1;ratioP1;P2;durP2;ratioP2
27580;SDS011;63557;52.302;7.964;2023-04-09T00:02:49;109.47;;;55.38;;
27580;SDS011;63557;52.302;7.964;2023-04-09T00:07:50;112.53;;;57.75;;
27580;SDS011;63557;52.302;7.964;2023-04-09T00:12:50;111.53;;;55.88;;
27580;SDS011;63557;52.302;7.964;2023-04-09T00:17:51;116.78;;;58.28;;
27580;SDS011;63557;52.302;7.964;2023-04-09T00:22:51;113.30;;;54.88;;
27580;SDS011;63557;52.302;7.964;2023-04-09T00:27:51;115.13;;;58.38;;
27580;SDS011;63557;52.302;7.964;2023-04-09T00:32:52;116.22;;;56.92;;
27580;SDS011;63557;52.302;7.964;2023-04-09T00:37:52;119.45;;;56.90;;
27580;SDS011;63557;52.302;7.964;2023-04-09T00:42:53;110.78;;;54.95;;
27580;SDS011;63557;52.302;7.964;2023-04-09T00:47:53;123.05;;;57.85;;
27580;SDS011;63557;52.302;7.964;2023-04-09T00:52:54;108.55;;;54.78;;
27580;SDS011;63557;52.302;7.964;2023-04-09T00:57:54;126.55;;;58.20;;
27580;SDS011;63557;52.302;7.964;2023-04-09T01:02:55;113.53;;;53.85;;
27580;SDS011;63557;52.302;7.964;2023-04-09T01:08:07;112.15;;;54.67;;
27580;SDS011;63557;52.302;7.964;2023-04-09T01:13:16;110.45;;;53.47;;
27580;SDS011;63557;52.302;7.964;2023-04-09T01:23:46;119.43;;;55.83;;
27580;SDS011;63557;52.302;7.964;2023-04-09T01:28:52;130.48;;;61.05;;
27580;SDS011;63557;52.302;7.964;2023-04-09T01:33:53;119.20;;;55.63;;
27580;SDS011;63557;52.302;7.964;2023-04-09T01:38:54;126.15;;;55.13;;
27580;SDS011;63557;52.302;7.964;2023-04-09T01:43:55;122.22;;;55.72;;
27580;SDS011;63557;52.302;7.964;2023-04-09T01:48:55;122.80;;;59.10;;
27580;SDS011;63557;52.302;7.964;2023-04-09T01:53:56;130.93;;;61.03;;
27580;SDS011;63557;52.302;7.964;2023-04-09T01:58:56;128.40;;;59.40;;
27580;SDS011;63557;52.302;7.964;2023-04-09T02:03:59;121.10;;;58.38;;
27580;SDS011;63557;52.302;7.964;2023-04-09T02:09:00;132.75;;;59.15;;
27580;SDS011;63557;52.302;7.964;2023-04-09T02:14:01;123.47;;;55.80;;
27580;SDS011;63557;52.302;7.964;2023-04-09T02:19:02;101.32;;;50.55;;
27580;SDS011;63557;52.302;7.964;2023-04-09T02:24:03;136.63;;;59.85;;
27580;SDS011;63557;52.302;7.964;2023-04-09T02:29:03;134.95;;;59.90;;
27580;SDS011;63557;52.302;7.964;2023-04-09T02:34:04;126.70;;;56.33;;
27580;SDS011;63557;52.302;7.964;2023-04-09T02:39:06;123.00;;;56.25;;
27580;SDS011;63557;52.302;7.964;2023-04-09T02:44:06;120.20;;;56.28;;
27580;SDS011;63557;52.302;7.964;2023-04-09T02:49:07;118.57;;;54.92;;
27580;SDS011;63557;52.302;7.964;2023-04-09T02:54:07;114.05;;;55.00;;
27580;SDS011;63557;52.302;7.964;2023-04-09T02:59:07;124.55;;;54.90;;
27580;SDS011;63557;52.302;7.964;2023-04-09T03:04:08;124.47;;;57.10;;
27580;SDS011;63557;52.302;7.964;2023-04-09T03:09:09;127.15;;;58.38;;
27580;SDS011;63557;52.302;7.964;2023-04-09T03:14:09;120.45;;;57.60;;
27580;SDS011;63557;52.302;7.964;2023-04-09T03:19:10;116.53;;;54.77;;
27580;SDS011;63557;52.302;7.964;2023-04-09T03:24:11;109.70;;;53.53;;
27580;SDS011;63557;52.302;7.964;2023-04-09T03:29:11;126.28;;;58.20;;
27580;SDS011;63557;52.302;7.964;2023-04-09T03:34:12;124.68;;;58.25;;
27580;SDS011;63557;52.302;7.964;2023-04-09T03:39:12;119.22;;;55.25;;
27580;SDS011;63557;52.302;7.964;2023-04-09T03:44:16;123.55;;;56.30;;
27580;SDS011;63557;52.302;7.964;2023-04-09T03:49:30;125.15;;;53.95;;
27580;SDS011;63557;52.302;7.964;2023-04-09T03:54:40;150.45;;;60.80;;
27580;SDS011;63557;52.302;7.964;2023-04-09T03:59:47;142.18;;;60.53;;
27580;SDS011;63557;52.302;7.964;2023-04-09T04:04:51;144.33;;;57.77;;
27580;SDS011;63557;52.302;7.964;2023-04-09T04:09:53;139.43;;;60.50;;
27580;SDS011;63557;52.302;7.964;2023-04-09T04:14:54;132.45;;;57.58;;
27580;SDS011;63557;52.302;7.964;2023-04-09T04:20:02;126.93;;;56.67;;
27580;SDS011;63557;52.302;7.964;2023-04-09T04:25:07;126.55;;;58.25;;
27580;SDS011;63557;52.302;7.964;2023-04-09T04:30:08;149.93;;;61.10;;
27580;SDS011;63557;52.302;7.964;2023-04-09T04:35:16;161.23;;;62.58;;
27580;SDS011;63557;52.302;7.964;2023-04-09T04:40:17;189.02;;;70.80;;
27580;SDS011;63557;52.302;7.964;2023-04-09T04:45:18;200.40;;;75.82;;
27580;SDS011;63557;52.302;7.964;2023-04-09T04:50:24;200.75;;;74.78;;
27580;SDS011;63557;52.302;7.964;2023-04-09T04:55:36;191.25;;;73.30;;
27580;SDS011;63557;52.302;7.964;2023-04-09T05:00:39;196.48;;;72.53;;
27580;SDS011;63557;52.302;7.964;2023-04-09T05:05:41;205.45;;;76.03;;
27580;SDS011;63557;52.302;7.964;2023-04-09T05:10:42;172.05;;;68.93;;
27580;SDS011;63557;52.302;7.964;2023-04-09T05:15:44;203.40;;;74.45;;
27580;SDS011;63557;52.302;7.964;2023-04-09T05:20:45;184.90;;;71.68;;
27580;SDS011;63557;52.302;7.964;2023-04-09T05:25:47;197.25;;;75.07;;
27580;SDS011;63557;52.302;7.964;2023-04-09T05:30:55;209.57;;;81.43;;
27580;SDS011;63557;52.302;7.964;2023-04-09T05:35:57;206.40;;;78.03;;
27580;SDS011;63557;52.302;7.964;2023-04-09T05:40:57;191.13;;;77.13;;
27580;SDS011;63557;52.302;7.964;2023-04-09T05:45:57;200.77;;;79.32;;
27580;SDS011;63557;52.302;7.964;2023-04-09T05:50:58;193.50;;;77.07;;
27580;SDS011;63557;52.302;7.964;2023-04-09T05:56:00;178.43;;;74.22;;
27580;SDS011;63557;52.302;7.964;2023-04-09T06:01:13;183.55;;;75.38;;
27580;SDS011;63557;52.302;7.964;2023-04-09T06:06:13;189.68;;;81.32;;
27580;SDS011;63557;52.302;7.964;2023-04-09T06:11:14;184.23;;;80.43;;
27580;SDS011;63557;52.302;7.964;2023-04-09T06:16:14;184.60;;;79.80;;
27580;SDS011;63557;52.302;7.964;2023-04-09T06:21:15;160.65;;;74.28;;
27580;SDS011;63557;52.302;7.964;2023-04-09T06:26:15;156.10;;;72.53;;
27580;SDS011;63557;52.302;7.964;2023-04-09T06:31:16;153.80;;;71.13;;
27580;SDS011;63557;52.302;7.964;2023-04-09T06:36:17;143.73;;;68.07;;
27580;SDS011;63557;52.302;7.964;2023-04-09T06:41:20;135.88;;;66.35;;
27580;SDS011;63557;52.302;7.964;2023-04-09T06:46:21;115.68;;;59.88;;
27580;SDS011;63557;52.302;7.964;2023-04-09T06:51:22;126.47;;;60.63;;
27580;SDS011;63557;52.302;7.964;2023-04-09T06:56:22;111.63;;;58.30;;
27580;SDS011;63557;52.302;7.964;2023-04-09T07:01:23;110.53;;;57.13;;
27580;SDS011;63557;52.302;7.964;2023-04-09T07:06:24;105.68;;;54.85;;
27580;SDS011;63557;52.302;7.964;2023-04-09T07:11:25;97.93;;;53.22;;
27580;SDS011;63557;52.302;7.964;2023-04-09T07:16:25;97.00;;;52.30;;
27580;SDS011;63557;52.302;7.964;2023-04-09T07:21:25;98.03;;;50.70;;
27580;SDS011;63557;52.302;7.964;2023-04-09T07:26:27;88.78;;;49.00;;
27580;SDS011;63557;52.302;7.964;2023-04-09T07:31:28;86.30;;;47.10;;
27580;SDS011;63557;52.302;7.964;2023-04-09T07:36:29;84.90;;;48.63;;
27580;SDS011;63557;52.302;7.964;2023-04-09T07:41:30;87.55;;;51.67;;
27580;SDS011;63557;52.302;7.964;2023-04-09T07:46:31;97.80;;;51.57;;
27580;SDS011;63557;52.302;7.964;2023-04-09T07:51:31;85.90;;;48.80;;
27580;SDS011;63557;52.302;7.964;2023-04-09T07:56:31;82.83;;;46.37;;
27580;SDS011;63557;52.302;7.964;2023-04-09T08:01:32;78.47;;;47.23;;
27580;SDS011;63557;52.302;7.964;2023-04-09T08:06:32;83.60;;;49.43;;
27580;SDS011;63557;52.302;7.964;2023-04-09T08:11:32;78.67;;;48.43;;
27580;SDS011;63557;52.302;7.964;2023-04-09T08:16:33;69.88;;;44.08;;
27580;SDS011;63557;52.302;7.964;2023-04-09T08:21:35;75.60;;;46.35;;
27580;SDS011;63557;52.302;7.964;2023-04-09T08:26:39;70.55;;;44.47;;
27580;SDS011;63557;52.302;7.964;2023-04-09T08:31:39;66.43;;;42.33;;
27580;SDS011;63557;52.302;7.964;2023-04-09T08:36:40;62.33;;;42.58;;
27580;SDS011;63557;52.302;7.964;2023-04-09T08:41:44;60.78;;;40.17;;
27580;SDS011;63557;52.302;7.964;2023-04-09T08:46:45;59.67;;;40.75;;
27580;SDS011;63557;52.302;7.964;2023-04-09T08:51:46;58.30;;;40.07;;
27580;SDS011;63557;52.302;7.964;2023-04-09T08:56:46;57.60;;;38.88;;
27580;SDS011;63557;52.302;7.964;2023-04-09T09:01:47;51.17;;;36.42;;
27580;SDS011;63557;52.302;7.964;2023-04-09T09:06:53;53.33;;;37.92;;
27580;SDS011;63557;52.302;7.964;2023-04-09T09:11:53;48.50;;;37.07;;
27580;SDS011;63557;52.302;7.964;2023-04-09T09:21:57;47.08;;;34.55;;
27580;SDS011;63557;52.302;7.964;2023-04-09T09:26:58;45.92;;;34.58;;
27580;SDS011;63557;52.302;7.964;2023-04-09T09:31:58;44.45;;;33.33;;
27580;SDS011;63557;52.302;7.964;2023-04-09T09:36:59;42.58;;;32.55;;
27580;SDS011;63557;52.302;7.964;2023-04-09T09:42:06;40.93;;;32.03;;
27580;SDS011;63557;52.302;7.964;2023-04-09T09:47:07;39.05;;;30.85;;
27580;SDS011;63557;52.302;7.964;2023-04-09T09:52:09;31.30;;;26.38;;
27580;SDS011;63557;52.302;7.964;2023-04-09T09:57:10;40.33;;;29.08;;
27580;SDS011;63557;52.302;7.964;2023-04-09T10:02:19;35.67;;;28.33;;
27580;SDS011;63557;52.302;7.964;2023-04-09T10:07:19;32.60;;;26.67;;
27580;SDS011;63557;52.302;7.964;2023-04-09T10:12:21;31.75;;;26.75;;
27580;SDS011;63557;52.302;7.964;2023-04-09T10:17:23;33.83;;;28.02;;
27580;SDS011;63557;52.302;7.964;2023-04-09T10:22:23;32.33;;;26.90;;
27580;SDS011;63557;52.302;7.964;2023-04-09T10:27:25;31.52;;;26.67;;
27580;SDS011;63557;52.302;7.964;2023-04-09T10:32:28;31.40;;;25.95;;
27580;SDS011;63557;52.302;7.964;2023-04-09T10:37:33;29.98;;;25.02;;
27580;SDS011;63557;52.302;7.964;2023-04-09T10:42:34;33.85;;;25.17;;
27580;SDS011;63557;52.302;7.964;2023-04-09T10:47:36;29.85;;;24.65;;
27580;SDS011;63557;52.302;7.964;2023-04-09T10:52:37;28.00;;;24.95;;
27580;SDS011;63557;52.302;7.964;2023-04-09T10:57:40;26.77;;;23.88;;
27580;SDS011;63557;52.302;7.964;2023-04-09T11:02:54;26.90;;;23.63;;
27580;SDS011;63557;52.302;7.964;2023-04-09T11:13:04;24.95;;;22.35;;
27580;SDS011;63557;52.302;7.964;2023-04-09T11:18:04;24.42;;;21.83;;
27580;SDS011;63557;52.302;7.964;2023-04-09T11:23:16;27.88;;;22.65;;
27580;SDS011;63557;52.302;7.964;2023-04-09T11:28:16;26.60;;;23.70;;
27580;SDS011;63557;52.302;7.964;2023-04-09T11:33:17;26.90;;;24.00;;
27580;SDS011;63557;52.302;7.964;2023-04-09T11:38:17;27.85;;;24.85;;
27580;SDS011;63557;52.302;7.964;2023-04-09T11:43:18;29.23;;;24.93;;
27580;SDS011;63557;52.302;7.964;2023-04-09T11:48:19;27.73;;;24.25;;
27580;SDS011;63557;52.302;7.964;2023-04-09T11:53:22;30.25;;;25.30;;
27580;SDS011;63557;52.302;7.964;2023-04-09T11:58:24;26.67;;;23.10;;
27580;SDS011;63557;52.302;7.964;2023-04-09T12:03:31;28.73;;;22.90;;
27580;SDS011;63557;52.302;7.964;2023-04-09T12:08:35;31.23;;;24.95;;
27580;SDS011;63557;52.302;7.964;2023-04-09T12:13:36;27.92;;;23.20;;
27580;SDS011;63557;52.302;7.964;2023-04-09T12:18:39;26.52;;;21.55;;
27580;SDS011;63557;52.302;7.964;2023-04-09T12:23:39;27.05;;;22.13;;
27580;SDS011;63557;52.302;7.964;2023-04-09T12:28:40;28.85;;;23.58;;
27580;SDS011;63557;52.302;7.964;2023-04-09T12:33:40;25.27;;;21.30;;
27580;SDS011;63557;52.302;7.964;2023-04-09T12:38:41;28.00;;;22.63;;
27580;SDS011;63557;52.302;7.964;2023-04-09T12:43:42;31.42;;;23.83;;
27580;SDS011;63557;52.302;7.964;2023-04-09T12:48:42;30.05;;;23.35;;
27580;SDS011;63557;52.302;7.964;2023-04-09T12:53:43;30.60;;;23.80;;
27580;SDS011;63557;52.302;7.964;2023-04-09T12:58:43;28.63;;;23.10;;
27580;SDS011;63557;52.302;7.964;2023-04-09T13:03:43;28.93;;;22.17;;
27580;SDS011;63557;52.302;7.964;2023-04-09T13:08:44;29.47;;;22.63;;
27580;SDS011;63557;52.302;7.964;2023-04-09T13:13:44;28.98;;;21.90;;
27580;SDS011;63557;52.302;7.964;2023-04-09T13:18:45;27.77;;;21.73;;
27580;SDS011;63557;52.302;7.964;2023-04-09T13:23:45;39.33;;;29.00;;
27580;SDS011;63557;52.302;7.964;2023-04-09T13:28:46;37.17;;;26.33;;
27580;SDS011;63557;52.302;7.964;2023-04-09T13:33:46;38.80;;;28.40;;
27580;SDS011;63557;52.302;7.964;2023-04-09T13:38:46;31.10;;;23.47;;
27580;SDS011;63557;52.302;7.964;2023-04-09T13:43:47;32.08;;;24.73;;
27580;SDS011;63557;52.302;7.964;2023-04-09T13:48:48;33.57;;;23.93;;
27580;SDS011;63557;52.302;7.964;2023-04-09T13:53:48;28.97;;;21.80;;
27580;SDS011;63557;52.302;7.964;2023-04-09T13:58:49;27.80;;;21.33;;
27580;SDS011;63557;52.302;7.964;2023-04-09T14:03:49;29.42;;;21.85;;
27580;SDS011;63557;52.302;7.964;2023-04-09T14:08:50;29.10;;;21.67;;
27580;SDS011;63557;52.302;7.964;2023-04-09T14:13:50;29.57;;;20.23;;
27580;SDS011;63557;52.302;7.964;2023-04-09T14:18:50;26.47;;;20.30;;
27580;SDS011;63557;52.302;7.964;2023-04-09T14:23:51;26.53;;;20.27;;
27580;SDS011;63557;52.302;7.964;2023-04-09T14:28:51;27.33;;;20.30;;
27580;SDS011;63557;52.302;7.964;2023-04-09T14:33:51;27.43;;;20.40;;
27580;SDS011;63557;52.302;7.964;2023-04-09T14:38:52;26.85;;;21.17;;
27580;SDS011;63557;52.302;7.964;2023-04-09T14:43:52;26.67;;;20.27;;
27580;SDS011;63557;52.302;7.964;2023-04-09T14:48:53;24.67;;;19.80;;
27580;SDS011;63557;52.302;7.964;2023-04-09T14:53:53;23.63;;;18.23;;
27580;SDS011;63557;52.302;7.964;2023-04-09T14:58:53;23.97;;;19.23;;
27580;SDS011;63557;52.302;7.964;2023-04-09T15:03:54;22.57;;;17.50;;
27580;SDS011;63557;52.302;7.964;2023-04-09T15:08:54;23.02;;;17.00;;
27580;SDS011;63557;52.302;7.964;2023-04-09T15:13:55;23.30;;;17.40;;
27580;SDS011;63557;52.302;7.964;2023-04-09T15:18:56;21.58;;;16.38;;
27580;SDS011;63557;52.302;7.964;2023-04-09T15:23:59;19.73;;;15.70;;
27580;SDS011;63557;52.302;7.964;2023-04-09T15:28:59;21.15;;;16.13;;
27580;SDS011;63557;52.302;7.964;2023-04-09T15:34:01;21.55;;;17.17;;
27580;SDS011;63557;52.302;7.964;2023-04-09T15:39:01;22.20;;;17.50;;
27580;SDS011;63557;52.302;7.964;2023-04-09T15:44:03;20.33;;;15.45;;
27580;SDS011;63557;52.302;7.964;2023-04-09T15:49:03;21.90;;;16.97;;
27580;SDS011;63557;52.302;7.964;2023-04-09T15:54:04;23.98;;;16.75;;
27580;SDS011;63557;52.302;7.964;2023-04-09T15:59:05;25.02;;;19.10;;
27580;SDS011;63557;52.302;7.964;2023-04-09T16:04:07;20.98;;;14.30;;
27580;SDS011;63557;52.302;7.964;2023-04-09T16:09:08;19.30;;;14.77;;
27580;SDS011;63557;52.302;7.964;2023-04-09T16:14:08;18.27;;;14.10;;
27580;SDS011;63557;52.302;7.964;2023-04-09T16:19:09;19.30;;;14.50;;
27580;SDS011;63557;52.302;7.964;2023-04-09T16:24:10;18.10;;;14.15;;
27580;SDS011;63557;52.302;7.964;2023-04-09T16:29:13;17.65;;;14.80;;
27580;SDS011;63557;52.302;7.964;2023-04-09T16:34:15;19.42;;;14.15;;
27580;SDS011;63557;52.302;7.964;2023-04-09T16:39:17;17.60;;;14.67;;
27580;SDS011;63557;52.302;7.964;2023-04-09T16:44:17;19.23;;;15.45;;
27580;SDS011;63557;52.302;7.964;2023-04-09T16:49:17;18.30;;;14.00;;
27580;SDS011;63557;52.302;7.964;2023-04-09T16:54:18;17.80;;;13.57;;
27580;SDS011;63557;52.302;7.964;2023-04-09T16:59:18;18.73;;;13.80;;
27580;SDS011;63557;52.302;7.964;2023-04-09T17:04:20;19.60;;;14.65;;
27580;SDS011;63557;52.302;7.964;2023-04-09T17:09:20;21.27;;;15.30;;
27580;SDS011;63557;52.302;7.964;2023-04-09T17:14:20;23.80;;;18.37;;
27580;SDS011;63557;52.302;7.964;2023-04-09T17:19:21;19.27;;;15.43;;
27580;SDS011;63557;52.302;7.964;2023-04-09T17:24:21;19.13;;;16.33;;
27580;SDS011;63557;52.302;7.964;2023-04-09T17:29:21;22.67;;;16.88;;
27580;SDS011;63557;52.302;7.964;2023-04-09T17:34:22;22.67;;;18.07;;
27580;SDS011;63557;52.302;7.964;2023-04-09T17:39:23;24.58;;;19.48;;
27580;SDS011;63557;52.302;7.964;2023-04-09T17:44:24;23.85;;;18.80;;
27580;SDS011;63557;52.302;7.964;2023-04-09T17:49:27;24.20;;;19.20;;
27580;SDS011;63557;52.302;7.964;2023-04-09T17:54:34;27.42;;;19.63;;
27580;SDS011;63557;52.302;7.964;2023-04-09T17:59:34;27.13;;;20.20;;
27580;SDS011;63557;52.302;7.964;2023-04-09T18:04:35;32.92;;;23.48;;
27580;SDS011;63557;52.302;7.964;2023-04-09T18:09:36;34.47;;;25.20;;
27580;SDS011;63557;52.302;7.964;2023-04-09T18:14:39;38.25;;;26.52;;
27580;SDS011;63557;52.302;7.964;2023-04-09T18:19:39;40.20;;;27.90;;
27580;SDS011;63557;52.302;7.964;2023-04-09T18:24:40;43.60;;;28.90;;
27580;SDS011;63557;52.302;7.964;2023-04-09T18:29:41;51.85;;;35.13;;
27580;SDS011;63557;52.302;7.964;2023-04-09T18:34:41;52.47;;;35.53;;
27580;SDS011;63557;52.302;7.964;2023-04-09T18:39:41;62.53;;;39.57;;
27580;SDS011;63557;52.302;7.964;2023-04-09T18:44:42;66.47;;;42.17;;
27580;SDS011;63557;52.302;7.964;2023-04-09T18:49:43;62.17;;;38.50;;
27580;SDS011;63557;52.302;7.964;2023-04-09T18:54:44;67.17;;;42.97;;
27580;SDS011;63557;52.302;7.964;2023-04-09T18:59:44;63.35;;;41.33;;
27580;SDS011;63557;52.302;7.964;2023-04-09T19:04:45;70.43;;;42.55;;
27580;SDS011;63557;52.302;7.964;2023-04-09T19:09:46;64.90;;;40.80;;
27580;SDS011;63557;52.302;7.964;2023-04-09T19:14:46;60.58;;;40.83;;
27580;SDS011;63557;52.302;7.964;2023-04-09T19:19:47;56.78;;;38.60;;
27580;SDS011;63557;52.302;7.964;2023-04-09T19:24:47;60.95;;;39.72;;
27580;SDS011;63557;52.302;7.964;2023-04-09T19:29:48;67.25;;;43.00;;
27580;SDS011;63557;52.302;7.964;2023-04-09T19:34:48;60.87;;;41.07;;
27580;SDS011;63557;52.302;7.964;2023-04-09T19:39:48;61.70;;;42.43;;
27580;SDS011;63557;52.302;7.964;2023-04-09T19:44:49;67.43;;;45.37;;
27580;SDS011;63557;52.302;7.964;2023-04-09T19:49:49;66.38;;;45.95;;
27580;SDS011;63557;52.302;7.964;2023-04-09T19:54:53;72.10;;;48.58;;
27580;SDS011;63557;52.302;7.964;2023-04-09T19:59:54;69.43;;;49.13;;
27580;SDS011;63557;52.302;7.964;2023-04-09T20:04:54;73.07;;;48.13;;
27580;SDS011;63557;52.302;7.964;2023-04-09T20:09:55;75.70;;;49.67;;
27580;SDS011;63557;52.302;7.964;2023-04-09T20:14:55;75.33;;;50.53;;
27580;SDS011;63557;52.302;7.964;2023-04-09T20:19:56;74.18;;;50.38;;
27580;SDS011;63557;52.302;7.964;2023-04-09T20:24:56;89.67;;;57.10;;
27580;SDS011;63557;52.302;7.964;2023-04-09T20:29:58;86.35;;;54.08;;
27580;SDS011;63557;52.302;7.964;2023-04-09T20:34:59;85.35;;;54.58;;
27580;SDS011;63557;52.302;7.964;2023-04-09T20:39:59;89.27;;;56.17;;
27580;SDS011;63557;52.302;7.964;2023-04-09T20:45:00;85.80;;;56.40;;
27580;SDS011;63557;52.302;7.964;2023-04-09T20:50:00;82.23;;;53.27;;
27580;SDS011;63557;52.302;7.964;2023-04-09T20:55:01;89.57;;;57.35;;
27580;SDS011;63557;52.302;7.964;2023-04-09T21:00:01;91.90;;;58.13;;
27580;SDS011;63557;52.302;7.964;2023-04-09T21:05:02;95.80;;;60.10;;
27580;SDS011;63557;52.302;7.964;2023-04-09T21:10:02;94.53;;;63.37;;
27580;SDS011;63557;52.302;7.964;2023-04-09T21:15:04;94.40;;;61.65;;
27580;SDS011;63557;52.302;7.964;2023-04-09T21:20:05;97.57;;;64.53;;
27580;SDS011;63557;52.302;7.964;2023-04-09T21:25:06;98.28;;;62.85;;
27580;SDS011;63557;52.302;7.964;2023-04-09T21:30:06;99.03;;;65.75;;
27580;SDS011;63557;52.302;7.964;2023-04-09T21:35:07;104.35;;;65.03;;
27580;SDS011;63557;52.302;7.964;2023-04-09T21:40:07;104.77;;;64.97;;
27580;SDS011;63557;52.302;7.964;2023-04-09T21:45:08;96.70;;;63.78;;
27580;SDS011;63557;52.302;7.964;2023-04-09T21:50:08;103.05;;;65.72;;
27580;SDS011;63557;52.302;7.964;2023-04-09T21:55:09;103.00;;;66.20;;
27580;SDS011;63557;52.302;7.964;2023-04-09T22:00:10;98.87;;;64.10;;
27580;SDS011;63557;52.302;7.964;2023-04-09T22:05:10;96.43;;;63.22;;
27580;SDS011;63557;52.302;7.964;2023-04-09T22:10:11;101.28;;;63.58;;
27580;SDS011;63557;52.302;7.964;2023-04-09T22:15:11;101.03;;;60.50;;
27580;SDS011;63557;52.302;7.964;2023-04-09T22:20:12;97.88;;;63.55;;
27580;SDS011;63557;52.302;7.964;2023-04-09T22:25:13;97.45;;;59.90;;
27580;SDS011;63557;52.302;7.964;2023-04-09T22:30:13;100.00;;;63.17;;
27580;SDS011;63557;52.302;7.964;2023-04-09T22:35:14;97.70;;;58.97;;
27580;SDS011;63557;52.302;7.964;2023-04-09T22:40:17;91.05;;;58.88;;
27580;SDS011;63557;52.302;7.964;2023-04-09T22:45:17;93.90;;;60.03;;
27580;SDS011;63557;52.302;7.964;2023-04-09T22:50:18;94.63;;;60.10;;
27580;SDS011;63557;52.302;7.964;2023-04-09T22:55:18;89.22;;;57.72;;
27580;SDS011;63557;52.302;7.964;2023-04-09T23:00:19;100.55;;;60.70;;
27580;SDS011;63557;52.302;7.964;2023-04-09T23:05:20;94.10;;;59.30;;
27580;SDS011;63557;52.302;7.964;2023-04-09T23:10:20;84.22;;;53.97;;
27580;SDS011;63557;52.302;7.964;2023-04-09T23:15:20;91.97;;;57.17;;
27580;SDS011;63557;52.302;7.964;2023-04-09T23:20:21;97.50;;;59.67;;
27580;SDS011;63557;52.302;7.964;2023-04-09T23:25:21;94.10;;;58.13;;
27580;SDS011;63557;52.302;7.964;2023-04-09T23:30:22;91.30;;;57.97;;
27580;SDS011;63557;52.302;7.964;2023-04-09T23:35:23;99.95;;;60.00;;
27580;SDS011;63557;52.302;7.964;2023-04-09T23:40:23;96.28;;;59.13;;
27580;SDS011;63557;52.302;7.964;2023-04-09T23:45:24;96.90;;;60.10;;
27580;SDS011;63557;52.302;7.964;2023-04-09T23:50:24;93.15;;;61.42;;
27580;SDS011;63557;52.302;7.964;2023-04-09T23:55:26;101.55;;;62.85;;
